createdAt,value
2023-03-17T00:00:54.667Z,2.95
2023-03-17T00:03:58.829Z,2.08
2023-03-17T00:07:01.095Z,2.08
2023-03-17T00:10:03.257Z,3.05
2023-03-17T00:13:06.804Z,2.70
2023-03-17T00:16:18.038Z,3.30
2023-03-17T00:19:30.072Z,2.80
2023-03-17T00:22:32.204Z,3.30
2023-03-17T00:25:34.755Z,3.28
2023-03-17T00:28:37.323Z,4.43
2023-03-17T00:31:39.720Z,4.20
2023-03-17T00:34:41.957Z,3.12
2023-03-17T00:37:45.551Z,2.92
2023-03-17T00:40:48.268Z,3.42
2023-03-17T00:43:50.930Z,2.72
2023-03-17T00:46:54.249Z,2.30
2023-03-17T00:49:56.474Z,2.50
2023-03-17T00:52:58.765Z,2.65
2023-03-17T00:56:01.106Z,3.22
2023-03-17T00:59:03.811Z,3.53
2023-03-17T01:02:06.061Z,1.52
2023-03-17T01:05:08.572Z,2.08
2023-03-17T01:08:10.771Z,1.75
2023-03-17T01:11:18.931Z,2.05
2023-03-17T01:14:22.582Z,2.40
2023-03-17T01:17:24.742Z,2.92
2023-03-17T01:20:36.072Z,3.60
2023-03-17T01:23:38.269Z,3.03
2023-03-17T01:26:40.604Z,2.83
2023-03-17T01:29:43.105Z,3.50
2023-03-17T01:32:45.487Z,3.33
2023-03-17T01:35:47.730Z,2.53
2023-03-17T01:38:50.930Z,3.15
2023-03-17T01:41:56.824Z,2.80
2023-03-17T01:45:29.487Z,2.58
2023-03-17T01:48:35.470Z,2.05
2023-03-17T01:52:02.267Z,2.50
2023-03-17T01:55:10.277Z,2.97
2023-03-17T01:58:12.951Z,1.75
2023-03-17T02:01:15.423Z,3.05
2023-03-17T02:04:19.475Z,2.85
2023-03-17T02:07:24.465Z,5.20
2023-03-17T02:10:28.709Z,3.97
2023-03-17T02:13:32.065Z,4.60
2023-03-17T02:16:34.567Z,5.25
2023-03-17T02:19:37.454Z,5.03
2023-03-17T02:22:39.696Z,3.42
2023-03-17T02:25:42.202Z,4.47
2023-03-17T02:28:46.125Z,2.12
2023-03-17T02:31:48.852Z,2.90
2023-03-17T02:34:51.334Z,3.08
2023-03-17T02:37:53.494Z,1.87
2023-03-17T02:40:55.949Z,2.33
2023-03-17T02:43:58.175Z,2.42
2023-03-17T02:47:01.009Z,2.58
2023-03-17T02:50:04.801Z,2.83
2023-03-17T02:53:07.648Z,1.60
2023-03-17T02:56:10.297Z,1.35
2023-03-17T02:59:12.520Z,2.30
2023-03-17T03:02:14.788Z,2.10
2023-03-17T03:05:17.002Z,3.37
2023-03-17T03:08:19.728Z,3.10
2023-03-17T03:11:21.936Z,2.78
2023-03-17T03:14:24.158Z,2.12
2023-03-17T03:17:26.409Z,2.90
2023-03-17T03:20:28.876Z,2.28
2023-03-17T03:23:31.554Z,4.40
2023-03-17T03:26:33.822Z,3.25
2023-03-17T03:29:36.467Z,3.78
2023-03-17T03:32:38.718Z,3.03
2023-03-17T03:35:41.224Z,3.87
2023-03-17T03:38:43.456Z,3.08
2023-03-17T03:41:45.757Z,2.33
2023-03-17T03:44:47.911Z,2.97
2023-03-17T03:47:50.151Z,2.33
2023-03-17T03:50:57.776Z,3.35
2023-03-17T03:54:01.369Z,2.58
2023-03-17T03:57:03.632Z,3.78
2023-03-17T04:00:07.533Z,2.72
2023-03-17T04:03:09.764Z,3.17
2023-03-17T04:06:12.022Z,3.45
2023-03-17T04:09:14.290Z,2.95
2023-03-17T04:12:17.220Z,3.00
2023-03-17T04:15:20.508Z,2.72
2023-03-17T04:18:22.673Z,3.12
2023-03-17T04:21:25.332Z,3.00
2023-03-17T04:24:28.896Z,3.62
2023-03-17T04:27:31.181Z,2.67
2023-03-17T04:30:33.392Z,3.80
2023-03-17T04:33:35.565Z,3.47
2023-03-17T04:36:37.747Z,3.40
2023-03-17T04:39:39.913Z,3.55
2023-03-17T04:42:42.540Z,3.25
2023-03-17T04:45:44.741Z,3.03
2023-03-17T04:48:46.959Z,3.92
2023-03-17T04:51:49.560Z,3.42
2023-03-17T04:54:51.758Z,3.53
2023-03-17T04:57:53.963Z,4.10
2023-03-17T05:00:56.516Z,5.37
2023-03-17T05:03:58.823Z,4.47
2023-03-17T05:07:01.239Z,4.07
2023-03-17T05:10:03.693Z,4.80
2023-03-17T05:13:05.880Z,4.15
2023-03-17T05:16:09.186Z,9.98
2023-03-17T05:19:11.653Z,6.65
2023-03-17T05:22:13.926Z,8.48
2023-03-17T05:25:16.944Z,5.47
2023-03-17T05:28:20.887Z,4.45
2023-03-17T05:31:23.168Z,5.15
2023-03-17T05:34:25.869Z,4.28
2023-03-17T05:37:28.440Z,6.47
2023-03-17T05:40:30.823Z,7.82
2023-03-17T05:43:33.200Z,5.20
2023-03-17T05:46:35.442Z,5.40
2023-03-17T05:49:37.687Z,4.75
2023-03-17T05:52:40.103Z,4.90
2023-03-17T05:55:42.769Z,5.30
2023-03-17T05:58:45.024Z,5.22
2023-03-17T06:01:47.448Z,5.25
2023-03-17T06:04:49.744Z,5.35
2023-03-17T06:07:56.263Z,4.25
2023-03-17T06:10:58.743Z,3.70
2023-03-17T06:14:01.807Z,4.20
2023-03-17T06:17:04.685Z,4.82
2023-03-17T06:20:07.503Z,4.97
2023-03-17T06:23:09.718Z,3.85
2023-03-17T06:26:11.872Z,3.58
2023-03-17T06:29:14.180Z,2.95
2023-03-17T06:32:20.609Z,1.67
2023-03-17T06:35:23.403Z,2.17
2023-03-17T06:38:25.659Z,2.00
2023-03-17T06:41:28.089Z,1.77
2023-03-17T06:44:30.293Z,2.90
2023-03-17T06:47:32.497Z,1.90
2023-03-17T06:50:34.726Z,2.00
2023-03-17T06:53:37.235Z,2.25
2023-03-17T06:56:39.456Z,1.80
2023-03-17T06:59:41.821Z,1.87
2023-03-17T07:02:44.604Z,2.03
2023-03-17T07:05:46.907Z,2.05
2023-03-17T07:08:49.565Z,2.45
2023-03-17T07:11:51.758Z,2.28
2023-03-17T07:14:54.248Z,2.58
2023-03-17T07:17:56.537Z,2.40
2023-03-17T07:21:02.269Z,1.77
2023-03-17T07:24:04.555Z,2.03
2023-03-17T07:27:07.054Z,1.55
2023-03-17T07:30:10.856Z,1.67
2023-03-17T07:33:13.950Z,2.10
2023-03-17T07:36:16.629Z,2.08
2023-03-17T07:39:18.873Z,2.03
2023-03-17T07:42:21.741Z,2.03
2023-03-17T07:45:23.936Z,1.70
2023-03-17T07:48:26.137Z,1.67
2023-03-17T07:51:28.735Z,1.98
2023-03-17T07:54:32.187Z,2.00
2023-03-17T07:57:34.695Z,1.40
2023-03-17T08:00:37.012Z,1.25
2023-03-17T08:03:41.274Z,1.62
2023-03-17T08:06:43.853Z,1.45
2023-03-17T08:09:46.580Z,1.33
2023-03-17T08:12:51.988Z,1.35
2023-03-17T08:15:54.260Z,1.20
2023-03-17T08:18:58.861Z,1.60
2023-03-17T08:22:04.492Z,1.85
2023-03-17T08:25:06.994Z,1.40
2023-03-17T08:28:10.320Z,2.05
2023-03-17T08:31:15.928Z,1.50
2023-03-17T08:34:18.201Z,1.40
2023-03-17T08:37:22.275Z,1.33
2023-03-17T08:40:24.518Z,1.70
2023-03-17T08:43:28.171Z,1.98
2023-03-17T08:46:32.094Z,1.87
2023-03-17T08:49:36.583Z,1.80
2023-03-17T08:52:39.428Z,1.48
2023-03-17T08:55:42.327Z,1.85
2023-03-17T08:58:44.781Z,1.45
2023-03-17T09:01:47.227Z,1.50
2023-03-17T09:04:49.577Z,1.92
2023-03-17T09:07:52.535Z,1.90
2023-03-17T09:10:54.773Z,1.70
2023-03-17T09:13:57.080Z,1.70
2023-03-17T09:16:59.599Z,2.37
2023-03-17T09:20:01.852Z,1.48
2023-03-17T09:23:09.044Z,1.70
2023-03-17T09:26:12.359Z,1.80
2023-03-17T09:29:15.349Z,1.58
2023-03-17T09:32:17.931Z,1.55
2023-03-17T09:35:20.702Z,1.90
2023-03-17T09:38:24.071Z,1.70
2023-03-17T09:41:41.940Z,1.80
2023-03-17T09:45:09.480Z,1.60
2023-03-17T09:48:30.437Z,1.40
2023-03-17T09:51:32.878Z,1.45
2023-03-17T09:54:38.126Z,1.87
2023-03-17T09:57:40.831Z,2.12
2023-03-17T10:00:44.304Z,1.30
2023-03-17T10:03:47.642Z,1.23
2023-03-17T10:06:52.005Z,1.52
2023-03-17T10:10:14.727Z,1.80
2023-03-17T10:13:34.162Z,1.55
2023-03-17T10:16:48.472Z,1.85
2023-03-17T10:20:00.099Z,1.37
2023-03-17T10:23:07.360Z,1.73
2023-03-17T10:26:27.412Z,1.67
2023-03-17T10:29:31.490Z,1.80
2023-03-17T10:32:36.909Z,1.60
2023-03-17T10:35:39.627Z,1.80
2023-03-17T10:38:56.147Z,1.80
2023-03-17T10:42:01.597Z,1.65
2023-03-17T10:45:13.223Z,1.80
2023-03-17T10:51:38.519Z,1.70
2023-03-17T10:54:40.722Z,2.47
2023-03-17T10:57:51.630Z,1.58
2023-03-17T11:01:00.311Z,1.48
2023-03-17T11:04:06.267Z,1.85
2023-03-17T11:07:20.333Z,2.00
2023-03-17T11:10:27.390Z,1.75
2023-03-17T11:13:30.584Z,1.40
2023-03-17T11:16:35.391Z,1.70
2023-03-17T11:19:53.067Z,1.98
2023-03-17T11:23:22.363Z,1.85
2023-03-17T11:26:52.932Z,1.85
2023-03-17T11:30:33.077Z,1.75
2023-03-17T11:33:36.856Z,1.60
2023-03-17T11:36:46.281Z,1.52
2023-03-17T11:39:57.488Z,1.50
2023-03-17T11:43:18.493Z,1.98
2023-03-17T11:46:37.996Z,1.70
2023-03-17T11:49:40.979Z,1.75
2023-03-17T11:53:03.641Z,1.80
2023-03-17T11:56:37.676Z,1.67
2023-03-17T11:59:52.283Z,1.80
2023-03-17T12:03:19.325Z,1.70
2023-03-17T12:06:28.771Z,1.98
2023-03-17T12:09:36.761Z,1.55
2023-03-17T12:12:43.918Z,1.55
2023-03-17T12:15:53.260Z,2.05
2023-03-17T12:19:13.388Z,1.67
2023-03-17T12:22:30.583Z,2.05
2023-03-17T12:25:59.659Z,2.03
2023-03-17T12:29:04.872Z,1.95
2023-03-17T12:32:12.429Z,1.80
2023-03-17T12:35:33.199Z,1.67
2023-03-17T12:38:59.260Z,1.98
2023-03-17T12:42:10.066Z,2.08
2023-03-17T12:45:46.379Z,1.75
2023-03-17T12:48:57.219Z,1.73
2023-03-17T12:52:10.990Z,2.20
2023-03-17T12:55:16.020Z,2.08
2023-03-17T12:58:33.091Z,1.80
2023-03-17T13:01:45.393Z,2.12
2023-03-17T13:04:53.538Z,2.85
2023-03-17T13:07:57.420Z,2.78
2023-03-17T13:11:36.818Z,2.30
2023-03-17T13:14:48.247Z,2.47
2023-03-17T13:20:55.808Z,1.90
2023-03-17T13:24:19.568Z,1.90
2023-03-17T13:27:33.912Z,2.30
2023-03-17T13:30:36.427Z,1.98
2023-03-17T13:34:13.621Z,1.77
2023-03-17T13:37:22.380Z,2.17
2023-03-17T13:40:47.638Z,2.00
2023-03-17T13:44:25.047Z,2.12
2023-03-17T13:47:34.876Z,1.70
2023-03-17T13:50:40.044Z,2.20
2023-03-17T13:53:52.768Z,2.40
2023-03-17T13:56:56.754Z,2.05
2023-03-17T14:00:25.204Z,2.12
2023-03-17T14:03:32.601Z,1.80
2023-03-17T14:06:37.402Z,1.98
2023-03-17T14:09:41.562Z,2.12
2023-03-17T14:13:01.421Z,1.92
2023-03-17T14:16:12.371Z,1.92
2023-03-17T14:19:28.767Z,1.95
2023-03-17T14:22:30.998Z,1.75
2023-03-17T14:25:36.129Z,2.00
2023-03-17T14:28:38.459Z,1.70
2023-03-17T14:31:40.918Z,2.40
2023-03-17T14:35:07.559Z,2.55
2023-03-17T14:38:27.550Z,2.35
2023-03-17T14:41:30.793Z,1.83
2023-03-17T14:44:43.013Z,2.28
2023-03-17T14:47:45.245Z,2.47
2023-03-17T14:50:55.439Z,2.60
2023-03-17T14:54:00.616Z,1.83
2023-03-17T14:57:07.116Z,2.60
2023-03-17T15:00:43.740Z,1.83
2023-03-17T15:03:56.494Z,2.40
2023-03-17T15:07:04.516Z,2.17
2023-03-17T15:10:18.094Z,3.25
2023-03-17T15:13:20.353Z,2.17
2023-03-17T15:16:29.872Z,2.22
2023-03-17T15:19:43.329Z,1.83
2023-03-17T15:22:57.181Z,2.60
2023-03-17T15:26:03.308Z,2.50
2023-03-17T15:29:05.723Z,2.33
2023-03-17T15:32:16.208Z,1.95
2023-03-17T15:35:18.622Z,2.72
2023-03-17T15:38:21.672Z,2.40
2023-03-17T15:41:23.898Z,2.97
2023-03-17T15:44:26.455Z,2.00
2023-03-17T15:47:31.069Z,1.85
2023-03-17T15:50:33.850Z,3.62
2023-03-17T15:53:36.298Z,2.00
2023-03-17T15:56:39.716Z,2.60
2023-03-17T15:59:42.088Z,2.12
2023-03-17T16:02:45.465Z,1.95
2023-03-17T16:05:47.685Z,1.92
2023-03-17T16:08:50.504Z,2.25
2023-03-17T16:11:52.744Z,2.08
2023-03-17T16:14:54.958Z,2.47
2023-03-17T16:18:07.504Z,2.62
2023-03-17T16:21:09.781Z,2.10
2023-03-17T16:24:20.435Z,2.25
2023-03-17T16:27:22.615Z,2.50
2023-03-17T16:30:31.389Z,4.43
2023-03-17T16:33:38.666Z,4.45
2023-03-17T16:36:40.804Z,3.83
2023-03-17T16:39:43.257Z,2.75
2023-03-17T16:42:46.473Z,3.03
2023-03-17T16:45:49.850Z,3.60
2023-03-17T16:48:52.093Z,3.05
2023-03-17T16:51:54.295Z,2.55
2023-03-17T16:54:57.109Z,2.60
2023-03-17T16:58:03.621Z,2.55
2023-03-17T17:01:19.197Z,2.47
2023-03-17T17:04:21.731Z,2.40
2023-03-17T17:07:24.022Z,2.03
2023-03-17T17:10:29.091Z,2.60
2023-03-17T17:13:31.577Z,2.37
2023-03-17T17:16:36.115Z,5.47
2023-03-17T17:19:38.357Z,5.30
2023-03-17T17:22:40.898Z,3.78
2023-03-17T17:25:43.660Z,3.92
2023-03-17T17:28:45.968Z,3.03
2023-03-17T17:31:48.540Z,3.97
2023-03-17T17:34:51.048Z,5.12
2023-03-17T17:37:53.759Z,5.15
2023-03-17T17:40:58.064Z,3.87
2023-03-17T17:44:00.496Z,6.32
2023-03-17T17:47:03.292Z,3.55
2023-03-17T17:50:06.984Z,3.85
2023-03-17T17:53:12.250Z,4.47
2023-03-17T17:56:16.213Z,4.22
2023-03-17T17:59:18.633Z,2.22
2023-03-17T18:02:21.178Z,2.50
2023-03-17T18:05:24.794Z,2.20
2023-03-17T18:08:27.582Z,2.83
2023-03-17T18:11:31.544Z,1.85
2023-03-17T18:14:33.945Z,2.47
2023-03-17T18:17:36.582Z,2.55
2023-03-17T18:20:39.099Z,2.10
2023-03-17T18:23:47.116Z,2.42
2023-03-17T18:26:51.033Z,2.60
2023-03-17T18:29:55.517Z,3.12
2023-03-17T18:33:07.267Z,2.55
2023-03-17T18:36:11.405Z,2.75
2023-03-17T18:39:16.677Z,2.67
2023-03-17T18:42:19.547Z,2.22
2023-03-17T18:45:22.576Z,2.70
2023-03-17T18:48:25.071Z,2.97
2023-03-17T18:51:27.934Z,2.35
2023-03-17T18:54:31.666Z,2.30
2023-03-17T18:57:34.612Z,2.22
2023-03-17T19:00:37.168Z,2.30
2023-03-17T19:03:39.390Z,2.33
2023-03-17T19:06:42.720Z,1.92
2023-03-17T19:09:45.339Z,1.83
2023-03-17T19:12:48.428Z,2.22
2023-03-17T19:15:51.433Z,2.28
2023-03-17T19:18:53.950Z,2.30
2023-03-17T19:21:56.446Z,1.92
2023-03-17T19:24:58.914Z,2.10
2023-03-17T19:28:03.267Z,1.48
2023-03-17T19:31:07.430Z,1.90
2023-03-17T19:34:11.449Z,1.77
2023-03-17T19:37:14.440Z,1.87
2023-03-17T19:40:16.872Z,2.03
2023-03-17T19:43:40.925Z,1.80
2023-03-17T19:46:43.733Z,2.12
2023-03-17T19:49:47.015Z,2.03
2023-03-17T19:52:52.274Z,1.50
2023-03-17T19:55:56.668Z,1.85
2023-03-17T19:58:59.411Z,1.80
2023-03-17T20:02:02.159Z,1.85
2023-03-17T20:05:05.333Z,1.83
2023-03-17T20:08:07.966Z,1.48
2023-03-17T20:11:12.663Z,3.22
2023-03-17T20:14:15.162Z,2.87
2023-03-17T20:17:19.193Z,2.00
2023-03-17T20:20:22.125Z,2.75
2023-03-17T20:23:25.401Z,2.42
2023-03-17T20:26:28.871Z,2.08
2023-03-17T20:29:31.682Z,2.30
2023-03-17T20:32:34.611Z,3.03
2023-03-17T20:35:38.999Z,2.83
2023-03-17T20:38:43.662Z,2.37
2023-03-17T20:41:48.251Z,2.55
2023-03-17T20:44:53.522Z,2.85
2023-03-17T20:47:56.078Z,2.67
2023-03-17T20:51:00.340Z,2.15
2023-03-17T20:54:03.186Z,2.35
2023-03-17T20:57:05.811Z,2.80
2023-03-17T21:00:12.594Z,2.47
2023-03-17T21:03:16.461Z,2.37
2023-03-17T21:06:20.028Z,2.50
2023-03-17T21:09:22.342Z,2.42
2023-03-17T21:12:25.450Z,2.30
2023-03-17T21:15:28.826Z,2.08
2023-03-17T21:18:31.767Z,1.77
2023-03-17T21:21:34.392Z,2.00
2023-03-17T21:24:38.289Z,1.80
2023-03-17T21:27:41.264Z,1.73
2023-03-17T21:30:43.877Z,1.83
2023-03-17T21:33:50.388Z,2.05
2023-03-17T21:36:53.366Z,1.80
2023-03-17T21:39:56.665Z,1.92
2023-03-17T21:43:00.740Z,2.15
2023-03-17T21:46:03.441Z,1.87
2023-03-17T21:49:05.749Z,2.00
2023-03-17T21:52:08.218Z,2.03
2023-03-17T21:55:11.622Z,1.62
2023-03-17T21:58:13.835Z,1.37
2023-03-17T22:01:17.739Z,2.00
2023-03-17T22:04:19.907Z,1.55
2023-03-17T22:07:22.233Z,1.83
2023-03-17T22:10:24.472Z,1.60
2023-03-17T22:13:26.724Z,1.50
2023-03-17T22:16:29.119Z,1.65
2023-03-17T22:19:32.372Z,2.15
2023-03-17T22:22:35.814Z,1.98
2023-03-17T22:25:38.094Z,1.75
2023-03-17T22:28:40.860Z,1.60
2023-03-17T22:31:43.292Z,1.67
2023-03-17T22:34:45.511Z,2.30
2023-03-17T22:37:47.682Z,1.80
2023-03-17T22:41:00.364Z,1.95
2023-03-17T22:44:02.780Z,1.77
2023-03-17T22:47:05.291Z,1.58
2023-03-17T22:50:08.045Z,1.87
2023-03-17T22:53:10.216Z,1.85
2023-03-17T22:56:13.629Z,1.58
2023-03-17T22:59:15.960Z,1.70
2023-03-17T23:02:18.650Z,2.33
2023-03-17T23:05:21.104Z,2.00
2023-03-17T23:08:23.777Z,1.60
2023-03-17T23:11:26.862Z,1.42
2023-03-17T23:14:29.067Z,1.62
2023-03-17T23:17:31.414Z,1.77
2023-03-17T23:20:34.150Z,1.25
2023-03-17T23:23:38.213Z,1.80
2023-03-17T23:26:40.418Z,1.45
2023-03-17T23:29:42.628Z,1.52
2023-03-17T23:32:45.271Z,1.52
2023-03-17T23:35:50.229Z,2.08
2023-03-17T23:38:52.903Z,2.20
2023-03-17T23:41:55.390Z,1.60
2023-03-17T23:44:57.759Z,1.77
2023-03-17T23:47:59.994Z,2.47
2023-03-17T23:51:03.312Z,1.83
2023-03-17T23:54:07.686Z,2.10
2023-03-17T23:57:09.867Z,1.90
